sensor_id;sensor_type;location;lat;lon;timestamp;pressure;altitude;pressure_sealevel;temperature;humidity
63663;BME280;49815;51.618;0.336;2022-08-21T00:02:14;100858.29;;;17.71;46.22
63663;BME280;49815;51.618;0.336;2022-08-21T00:04:41;100857.06;;;17.62;46.77
63663;BME280;49815;51.618;0.336;2022-08-21T00:07:04;100854.94;;;17.51;46.58
63663;BME280;49815;51.618;0.336;2022-08-21T00:09:30;100851.52;;;17.97;46.26
63663;BME280;49815;51.618;0.336;2022-08-21T00:11:55;100848.18;;;17.70;46.23
63663;BME280;49815;51.618;0.336;2022-08-21T00:14:21;100845.55;;;17.78;46.53
63663;BME280;49815;51.618;0.336;2022-08-21T00:16:46;100843.86;;;17.69;46.19
63663;BME280;49815;51.618;0.336;2022-08-21T00:19:11;100842.83;;;17.74;46.14
63663;BME280;49815;51.618;0.336;2022-08-21T00:21:37;100841.36;;;18.05;46.00
63663;BME280;49815;51.618;0.336;2022-08-21T00:24:03;100843.17;;;17.95;45.77
63663;BME280;49815;51.618;0.336;2022-08-21T00:26:28;100846.64;;;17.85;45.50
63663;BME280;49815;51.618;0.336;2022-08-21T00:28:53;100847.52;;;17.89;45.98
63663;BME280;49815;51.618;0.336;2022-08-21T00:31:19;100852.20;;;17.90;45.78
63663;BME280;49815;51.618;0.336;2022-08-21T00:33:45;100853.64;;;17.70;46.18
63663;BME280;49815;51.618;0.336;2022-08-21T00:36:10;100858.06;;;17.69;46.54
63663;BME280;49815;51.618;0.336;2022-08-21T00:38:35;100857.44;;;17.38;46.64
63663;BME280;49815;51.618;0.336;2022-08-21T00:41:03;100858.76;;;17.37;46.65
63663;BME280;49815;51.618;0.336;2022-08-21T00:43:29;100859.28;;;17.50;46.88
63663;BME280;49815;51.618;0.336;2022-08-21T00:45:53;100856.79;;;17.69;46.60
63663;BME280;49815;51.618;0.336;2022-08-21T00:48:18;100852.74;;;17.61;46.22
63663;BME280;49815;51.618;0.336;2022-08-21T00:50:48;100849.90;;;17.77;45.99
63663;BME280;49815;51.618;0.336;2022-08-21T00:53:10;100852.96;;;17.45;46.11
63663;BME280;49815;51.618;0.336;2022-08-21T00:55:35;100854.14;;;17.28;46.36
63663;BME280;49815;51.618;0.336;2022-08-21T00:58:03;100850.83;;;17.93;46.01
63663;BME280;49815;51.618;0.336;2022-08-21T01:00:28;100855.19;;;17.77;46.34
63663;BME280;49815;51.618;0.336;2022-08-21T01:02:50;100856.30;;;17.36;46.62
63663;BME280;49815;51.618;0.336;2022-08-21T01:05:16;100854.45;;;17.52;46.37
63663;BME280;49815;51.618;0.336;2022-08-21T01:07:41;100852.71;;;17.32;46.65
63663;BME280;49815;51.618;0.336;2022-08-21T01:10:07;100850.14;;;17.69;46.44
63663;BME280;49815;51.618;0.336;2022-08-21T01:12:32;100849.33;;;17.46;46.82
63663;BME280;49815;51.618;0.336;2022-08-21T01:14:57;100846.73;;;17.14;47.36
63663;BME280;49815;51.618;0.336;2022-08-21T01:17:22;100844.52;;;17.15;46.94
63663;BME280;49815;51.618;0.336;2022-08-21T01:19:47;100838.58;;;16.87;47.42
63663;BME280;49815;51.618;0.336;2022-08-21T01:22:13;100837.11;;;17.45;47.30
63663;BME280;49815;51.618;0.336;2022-08-21T01:24:40;100840.75;;;17.19;47.26
63663;BME280;49815;51.618;0.336;2022-08-21T01:27:05;100845.26;;;17.31;47.03
63663;BME280;49815;51.618;0.336;2022-08-21T01:29:34;100846.95;;;17.52;46.71
63663;BME280;49815;51.618;0.336;2022-08-21T01:31:55;100844.70;;;17.24;47.18
63663;BME280;49815;51.618;0.336;2022-08-21T01:34:20;100842.81;;;17.66;46.67
63663;BME280;49815;51.618;0.336;2022-08-21T01:36:46;100845.99;;;17.69;46.11
63663;BME280;49815;51.618;0.336;2022-08-21T01:39:11;100845.15;;;17.85;45.67
63663;BME280;49815;51.618;0.336;2022-08-21T01:41:36;100846.36;;;17.61;45.93
63663;BME280;49815;51.618;0.336;2022-08-21T01:44:02;100852.64;;;17.32;46.92
63663;BME280;49815;51.618;0.336;2022-08-21T01:46:27;100853.90;;;17.17;47.15
63663;BME280;49815;51.618;0.336;2022-08-21T01:48:52;100853.40;;;17.17;47.16
63663;BME280;49815;51.618;0.336;2022-08-21T01:51:18;100851.98;;;17.16;47.17
63663;BME280;49815;51.618;0.336;2022-08-21T01:53:43;100852.97;;;16.88;47.17
63663;BME280;49815;51.618;0.336;2022-08-21T01:56:11;100852.59;;;17.09;47.23
63663;BME280;49815;51.618;0.336;2022-08-21T01:58:34;100855.37;;;17.29;47.26
63663;BME280;49815;51.618;0.336;2022-08-21T02:01:01;100858.32;;;17.33;47.15
63663;BME280;49815;51.618;0.336;2022-08-21T02:03:25;100859.66;;;16.78;47.57
63663;BME280;49815;51.618;0.336;2022-08-21T02:05:50;100863.86;;;17.06;47.17
63663;BME280;49815;51.618;0.336;2022-08-21T02:08:16;100862.72;;;17.22;47.28
63663;BME280;49815;51.618;0.336;2022-08-21T02:10:41;100863.35;;;17.30;47.15
63663;BME280;49815;51.618;0.336;2022-08-21T02:13:07;100861.29;;;17.06;47.16
63663;BME280;49815;51.618;0.336;2022-08-21T02:15:33;100860.09;;;16.68;47.86
63663;BME280;49815;51.618;0.336;2022-08-21T02:18:00;100854.63;;;16.55;48.57
63663;BME280;49815;51.618;0.336;2022-08-21T02:20:26;100856.64;;;16.73;48.29
63663;BME280;49815;51.618;0.336;2022-08-21T02:22:50;100854.70;;;17.18;48.14
63663;BME280;49815;51.618;0.336;2022-08-21T02:25:15;100850.97;;;17.22;47.57
63663;BME280;49815;51.618;0.336;2022-08-21T02:27:42;100848.39;;;17.09;47.42
63663;BME280;49815;51.618;0.336;2022-08-21T02:30:08;100844.04;;;17.05;47.49
63663;BME280;49815;51.618;0.336;2022-08-21T02:32:31;100842.04;;;17.14;47.40
63663;BME280;49815;51.618;0.336;2022-08-21T02:34:56;100837.90;;;17.46;47.32
63663;BME280;49815;51.618;0.336;2022-08-21T02:37:22;100834.46;;;17.63;47.15
63663;BME280;49815;51.618;0.336;2022-08-21T02:39:47;100835.49;;;17.16;46.96
63663;BME280;49815;51.618;0.336;2022-08-21T02:42:12;100835.93;;;17.43;47.33
63663;BME280;49815;51.618;0.336;2022-08-21T02:44:38;100829.56;;;16.87;47.90
63663;BME280;49815;51.618;0.336;2022-08-21T02:47:03;100826.92;;;16.85;48.48
63663;BME280;49815;51.618;0.336;2022-08-21T02:49:28;100828.81;;;16.84;48.40
63663;BME280;49815;51.618;0.336;2022-08-21T02:51:53;100829.15;;;16.88;48.30
63663;BME280;49815;51.618;0.336;2022-08-21T02:54:19;100829.53;;;16.73;48.23
63663;BME280;49815;51.618;0.336;2022-08-21T02:56:45;100826.86;;;16.78;48.12
63663;BME280;49815;51.618;0.336;2022-08-21T02:59:10;100825.73;;;16.51;48.57
63663;BME280;49815;51.618;0.336;2022-08-21T03:01:36;100829.26;;;16.70;48.68
63663;BME280;49815;51.618;0.336;2022-08-21T03:04:01;100830.66;;;16.45;48.72
63663;BME280;49815;51.618;0.336;2022-08-21T03:06:26;100832.82;;;16.66;48.87
63663;BME280;49815;51.618;0.336;2022-08-21T03:08:52;100835.40;;;16.77;48.62
63663;BME280;49815;51.618;0.336;2022-08-21T03:11:18;100833.95;;;16.86;48.55
63663;BME280;49815;51.618;0.336;2022-08-21T03:13:43;100834.00;;;16.62;48.45
63663;BME280;49815;51.618;0.336;2022-08-21T03:16:09;100832.69;;;16.74;48.78
63663;BME280;49815;51.618;0.336;2022-08-21T03:18:34;100832.09;;;16.89;48.50
63663;BME280;49815;51.618;0.336;2022-08-21T03:21:00;100832.68;;;16.65;48.95
63663;BME280;49815;51.618;0.336;2022-08-21T03:23:25;100832.58;;;16.85;48.63
63663;BME280;49815;51.618;0.336;2022-08-21T03:25:51;100831.98;;;16.56;48.81
63663;BME280;49815;51.618;0.336;2022-08-21T03:28:19;100827.52;;;16.86;48.73
63663;BME280;49815;51.618;0.336;2022-08-21T03:30:43;100829.19;;;16.65;48.56
63663;BME280;49815;51.618;0.336;2022-08-21T03:33:07;100830.42;;;16.99;48.46
63663;BME280;49815;51.618;0.336;2022-08-21T03:35:33;100830.45;;;16.86;48.73
63663;BME280;49815;51.618;0.336;2022-08-21T03:37:59;100831.91;;;16.94;48.53
63663;BME280;49815;51.618;0.336;2022-08-21T03:40:25;100831.72;;;16.51;49.00
63663;BME280;49815;51.618;0.336;2022-08-21T03:42:50;100833.29;;;16.84;48.79
63663;BME280;49815;51.618;0.336;2022-08-21T03:45:16;100834.42;;;16.83;48.83
63663;BME280;49815;51.618;0.336;2022-08-21T03:47:51;100834.34;;;16.60;49.23
63663;BME280;49815;51.618;0.336;2022-08-21T03:50:07;100834.70;;;16.83;48.75
63663;BME280;49815;51.618;0.336;2022-08-21T03:52:31;100838.40;;;17.02;48.55
63663;BME280;49815;51.618;0.336;2022-08-21T03:54:57;100838.70;;;16.78;48.81
63663;BME280;49815;51.618;0.336;2022-08-21T03:57:22;100835.81;;;16.85;48.75
63663;BME280;49815;51.618;0.336;2022-08-21T03:59:47;100830.35;;;16.75;48.96
63663;BME280;49815;51.618;0.336;2022-08-21T04:02:14;100835.21;;;16.75;48.86
63663;BME280;49815;51.618;0.336;2022-08-21T04:04:38;100841.35;;;16.37;48.97
63663;BME280;49815;51.618;0.336;2022-08-21T04:07:03;100839.67;;;16.24;48.71
63663;BME280;49815;51.618;0.336;2022-08-21T04:09:30;100840.50;;;16.79;48.63
63663;BME280;49815;51.618;0.336;2022-08-21T04:11:54;100841.71;;;16.76;48.75
63663;BME280;49815;51.618;0.336;2022-08-21T04:14:21;100842.15;;;16.64;48.83
63663;BME280;49815;51.618;0.336;2022-08-21T04:16:46;100842.11;;;16.50;48.71
63663;BME280;49815;51.618;0.336;2022-08-21T04:19:12;100839.97;;;16.59;48.91
63663;BME280;49815;51.618;0.336;2022-08-21T04:21:42;100839.15;;;16.56;48.94
63663;BME280;49815;51.618;0.336;2022-08-21T04:24:03;100838.97;;;16.50;49.00
63663;BME280;49815;51.618;0.336;2022-08-21T04:26:28;100842.59;;;16.71;49.18
63663;BME280;49815;51.618;0.336;2022-08-21T04:28:53;100843.02;;;16.31;49.44
63663;BME280;49815;51.618;0.336;2022-08-21T04:31:18;100845.94;;;16.32;49.44
63663;BME280;49815;51.618;0.336;2022-08-21T04:33:43;100847.69;;;16.38;49.38
63663;BME280;49815;51.618;0.336;2022-08-21T04:36:09;100845.89;;;16.48;49.29
63663;BME280;49815;51.618;0.336;2022-08-21T04:38:35;100848.77;;;16.65;49.12
63663;BME280;49815;51.618;0.336;2022-08-21T04:41:00;100851.91;;;16.40;48.84
63663;BME280;49815;51.618;0.336;2022-08-21T04:43:25;100854.03;;;16.75;48.90
63663;BME280;49815;51.618;0.336;2022-08-21T04:45:51;100849.25;;;16.85;48.63
63663;BME280;49815;51.618;0.336;2022-08-21T04:48:18;100850.02;;;16.85;48.63
63663;BME280;49815;51.618;0.336;2022-08-21T04:50:44;100857.29;;;16.57;48.81
63663;BME280;49815;51.618;0.336;2022-08-21T04:53:09;100861.10;;;16.87;48.79
63663;BME280;49815;51.618;0.336;2022-08-21T04:55:32;100864.59;;;17.02;48.42
63663;BME280;49815;51.618;0.336;2022-08-21T04:57:57;100866.41;;;17.07;48.54
63663;BME280;49815;51.618;0.336;2022-08-21T05:00:23;100866.92;;;16.74;48.33
63663;BME280;49815;51.618;0.336;2022-08-21T05:02:49;100867.92;;;17.19;48.38
63663;BME280;49815;51.618;0.336;2022-08-21T05:05:13;100868.34;;;17.16;48.51
63663;BME280;49815;51.618;0.336;2022-08-21T05:07:39;100874.35;;;17.28;48.30
63663;BME280;49815;51.618;0.336;2022-08-21T05:10:05;100877.26;;;17.12;48.20
63663;BME280;49815;51.618;0.336;2022-08-21T05:12:31;100880.10;;;17.69;47.63
63663;BME280;49815;51.618;0.336;2022-08-21T05:14:54;100879.98;;;17.52;47.12
63663;BME280;49815;51.618;0.336;2022-08-21T05:17:19;100876.96;;;17.59;46.96
63663;BME280;49815;51.618;0.336;2022-08-21T05:19:45;100876.66;;;17.22;47.33
63663;BME280;49815;51.618;0.336;2022-08-21T05:22:11;100869.94;;;17.26;46.98
63663;BME280;49815;51.618;0.336;2022-08-21T05:24:36;100867.01;;;17.38;47.24
63663;BME280;49815;51.618;0.336;2022-08-21T05:27:02;100864.48;;;16.84;47.72
63663;BME280;49815;51.618;0.336;2022-08-21T05:29:27;100865.85;;;16.98;47.79
63663;BME280;49815;51.618;0.336;2022-08-21T05:31:52;100867.75;;;16.65;48.44
63663;BME280;49815;51.618;0.336;2022-08-21T05:34:20;100863.79;;;16.72;48.46
63663;BME280;49815;51.618;0.336;2022-08-21T05:36:43;100866.10;;;16.92;48.66
63663;BME280;49815;51.618;0.336;2022-08-21T05:39:08;100864.77;;;16.72;48.78
63663;BME280;49815;51.618;0.336;2022-08-21T05:41:34;100866.36;;;16.81;48.66
63663;BME280;49815;51.618;0.336;2022-08-21T05:44:00;100870.32;;;16.98;48.82
63663;BME280;49815;51.618;0.336;2022-08-21T05:46:26;100867.20;;;16.96;49.01
63663;BME280;49815;51.618;0.336;2022-08-21T05:48:51;100867.03;;;16.85;49.26
63663;BME280;49815;51.618;0.336;2022-08-21T05:51:16;100864.17;;;16.37;49.82
63663;BME280;49815;51.618;0.336;2022-08-21T05:53:43;100861.20;;;16.54;50.01
63663;BME280;49815;51.618;0.336;2022-08-21T05:56:08;100865.40;;;16.79;50.07
63663;BME280;49815;51.618;0.336;2022-08-21T05:58:33;100869.35;;;16.90;50.45
63663;BME280;49815;51.618;0.336;2022-08-21T06:00:59;100874.09;;;16.96;49.88
63663;BME280;49815;51.618;0.336;2022-08-21T06:03:27;100882.25;;;16.27;51.08
63663;BME280;49815;51.618;0.336;2022-08-21T06:05:49;100883.82;;;16.52;50.77
63663;BME280;49815;51.618;0.336;2022-08-21T06:08:16;100890.45;;;16.65;50.50
63663;BME280;49815;51.618;0.336;2022-08-21T06:10:41;100892.67;;;17.10;49.49
63663;BME280;49815;51.618;0.336;2022-08-21T06:13:06;100899.58;;;17.01;49.37
63663;BME280;49815;51.618;0.336;2022-08-21T06:15:31;100902.38;;;17.03;49.21
63663;BME280;49815;51.618;0.336;2022-08-21T06:17:56;100905.07;;;17.88;48.04
63663;BME280;49815;51.618;0.336;2022-08-21T06:20:22;100904.35;;;18.38;45.67
63663;BME280;49815;51.618;0.336;2022-08-21T06:22:47;100898.30;;;19.66;43.68
63663;BME280;49815;51.618;0.336;2022-08-21T06:25:13;100896.17;;;20.59;41.90
63663;BME280;49815;51.618;0.336;2022-08-21T06:27:38;100898.60;;;22.22;39.47
63663;BME280;49815;51.618;0.336;2022-08-21T06:30:05;100898.34;;;22.71;36.72
63663;BME280;49815;51.618;0.336;2022-08-21T06:32:29;100896.42;;;21.95;37.78
63663;BME280;49815;51.618;0.336;2022-08-21T06:34:54;100892.55;;;23.24;36.82
63663;BME280;49815;51.618;0.336;2022-08-21T06:37:19;100890.38;;;23.47;35.60
63663;BME280;49815;51.618;0.336;2022-08-21T06:39:44;100889.38;;;23.63;35.03
63663;BME280;49815;51.618;0.336;2022-08-21T06:42:13;100890.69;;;23.13;35.71
63663;BME280;49815;51.618;0.336;2022-08-21T06:44:34;100889.82;;;23.98;35.23
63663;BME280;49815;51.618;0.336;2022-08-21T06:46:59;100885.02;;;24.37;34.34
63663;BME280;49815;51.618;0.336;2022-08-21T06:49:24;100882.88;;;25.07;33.03
63663;BME280;49815;51.618;0.336;2022-08-21T06:51:49;100885.33;;;25.03;32.88
63663;BME280;49815;51.618;0.336;2022-08-21T06:54:14;100882.04;;;25.69;31.55
63663;BME280;49815;51.618;0.336;2022-08-21T06:56:41;100882.47;;;25.65;31.18
63663;BME280;49815;51.618;0.336;2022-08-21T06:59:07;100881.13;;;25.64;31.25
63663;BME280;49815;51.618;0.336;2022-08-21T07:01:31;100879.06;;;25.98;31.20
63663;BME280;49815;51.618;0.336;2022-08-21T07:03:58;100877.66;;;25.46;31.50
63663;BME280;49815;51.618;0.336;2022-08-21T07:06:22;100873.71;;;25.71;31.92
63663;BME280;49815;51.618;0.336;2022-08-21T07:08:47;100875.12;;;22.95;35.53
63663;BME280;49815;51.618;0.336;2022-08-21T07:11:17;100882.56;;;22.76;36.14
63663;BME280;49815;51.618;0.336;2022-08-21T07:13:38;100885.67;;;21.93;37.43
63663;BME280;49815;51.618;0.336;2022-08-21T07:16:04;100883.49;;;21.25;39.46
63663;BME280;49815;51.618;0.336;2022-08-21T07:18:28;100884.59;;;20.72;40.47
63663;BME280;49815;51.618;0.336;2022-08-21T07:20:54;100881.17;;;20.76;41.10
63663;BME280;49815;51.618;0.336;2022-08-21T07:23:22;100878.67;;;20.45;41.44
63663;BME280;49815;51.618;0.336;2022-08-21T07:25:44;100875.05;;;20.61;41.44
63663;BME280;49815;51.618;0.336;2022-08-21T07:28:09;100871.38;;;20.80;40.67
63663;BME280;49815;51.618;0.336;2022-08-21T07:30:34;100865.10;;;20.80;40.60
63663;BME280;49815;51.618;0.336;2022-08-21T07:32:59;100858.50;;;21.05;40.45
63663;BME280;49815;51.618;0.336;2022-08-21T07:35:24;100855.74;;;21.17;40.17
63663;BME280;49815;51.618;0.336;2022-08-21T07:37:49;100856.80;;;21.55;39.60
63663;BME280;49815;51.618;0.336;2022-08-21T07:40:15;100858.05;;;21.52;39.10
63663;BME280;49815;51.618;0.336;2022-08-21T07:42:41;100851.70;;;22.08;38.99
63663;BME280;49815;51.618;0.336;2022-08-21T07:45:11;100852.09;;;21.92;38.96
63663;BME280;49815;51.618;0.336;2022-08-21T07:47:30;100862.23;;;21.67;39.23
63663;BME280;49815;51.618;0.336;2022-08-21T07:49:56;100862.67;;;21.44;39.62
63663;BME280;49815;51.618;0.336;2022-08-21T07:52:21;100862.54;;;21.21;39.52
63663;BME280;49815;51.618;0.336;2022-08-21T07:54:46;100858.19;;;21.15;39.82
63663;BME280;49815;51.618;0.336;2022-08-21T07:57:11;100860.90;;;21.40;39.44
63663;BME280;49815;51.618;0.336;2022-08-21T07:59:37;100858.98;;;21.48;39.47
63663;BME280;49815;51.618;0.336;2022-08-21T08:02:02;100853.98;;;20.89;39.82
63663;BME280;49815;51.618;0.336;2022-08-21T08:04:27;100860.50;;;20.76;40.46
63663;BME280;49815;51.618;0.336;2022-08-21T08:06:52;100858.48;;;21.03;40.45
63663;BME280;49815;51.618;0.336;2022-08-21T08:09:18;100859.80;;;20.67;40.64
63663;BME280;49815;51.618;0.336;2022-08-21T08:11:43;100864.87;;;20.00;41.27
63663;BME280;49815;51.618;0.336;2022-08-21T08:14:08;100854.69;;;20.08;41.35
63663;BME280;49815;51.618;0.336;2022-08-21T08:16:33;100843.20;;;20.10;41.41
63663;BME280;49815;51.618;0.336;2022-08-21T08:18:59;100841.78;;;20.46;40.89
63663;BME280;49815;51.618;0.336;2022-08-21T08:21:23;100835.78;;;20.41;41.12
63663;BME280;49815;51.618;0.336;2022-08-21T08:23:49;100830.53;;;21.20;39.97
63663;BME280;49815;51.618;0.336;2022-08-21T08:26:14;100831.20;;;21.22;39.94
63663;BME280;49815;51.618;0.336;2022-08-21T08:28:39;100825.25;;;20.73;39.62
63663;BME280;49815;51.618;0.336;2022-08-21T08:31:04;100829.30;;;21.19;38.99
63663;BME280;49815;51.618;0.336;2022-08-21T08:33:30;100833.65;;;21.66;38.91
63663;BME280;49815;51.618;0.336;2022-08-21T08:35:56;100833.09;;;21.54;38.80
63663;BME280;49815;51.618;0.336;2022-08-21T08:38:22;100836.13;;;22.07;37.81
63663;BME280;49815;51.618;0.336;2022-08-21T08:40:50;100844.40;;;21.76;36.99
63663;BME280;49815;51.618;0.336;2022-08-21T08:43:11;100849.10;;;21.84;37.55
63663;BME280;49815;51.618;0.336;2022-08-21T08:45:37;100853.41;;;21.68;38.07
63663;BME280;49815;51.618;0.336;2022-08-21T08:48:03;100851.61;;;21.74;38.20
63663;BME280;49815;51.618;0.336;2022-08-21T08:50:28;100850.23;;;21.68;38.12
63663;BME280;49815;51.618;0.336;2022-08-21T08:52:57;100846.25;;;21.31;38.20
63663;BME280;49815;51.618;0.336;2022-08-21T08:55:20;100844.02;;;22.20;37.35
63663;BME280;49815;51.618;0.336;2022-08-21T08:57:46;100839.83;;;21.71;37.18
63663;BME280;49815;51.618;0.336;2022-08-21T09:00:12;100838.61;;;22.07;37.08
63663;BME280;49815;51.618;0.336;2022-08-21T09:02:33;100837.69;;;22.01;36.88
63663;BME280;49815;51.618;0.336;2022-08-21T09:04:59;100839.20;;;22.02;36.88
63663;BME280;49815;51.618;0.336;2022-08-21T09:07:32;100837.83;;;22.29;36.59
63663;BME280;49815;51.618;0.336;2022-08-21T09:10:05;100838.69;;;21.96;36.02
63663;BME280;49815;51.618;0.336;2022-08-21T09:12:18;100836.02;;;21.92;36.10
63663;BME280;49815;51.618;0.336;2022-08-21T09:14:52;100834.44;;;22.09;35.73
63663;BME280;49815;51.618;0.336;2022-08-21T09:17:12;100833.97;;;22.84;35.12
63663;BME280;49815;51.618;0.336;2022-08-21T09:19:38;100824.20;;;22.84;34.04
63663;BME280;49815;51.618;0.336;2022-08-21T09:22:03;100827.23;;;23.48;33.88
63663;BME280;49815;51.618;0.336;2022-08-21T09:24:32;100831.51;;;23.31;33.67
63663;BME280;49815;51.618;0.336;2022-08-21T09:26:49;100839.84;;;22.65;33.87
63663;BME280;49815;51.618;0.336;2022-08-21T09:29:11;100838.99;;;22.69;33.57
63663;BME280;49815;51.618;0.336;2022-08-21T09:31:36;100839.51;;;23.02;33.58
63663;BME280;49815;51.618;0.336;2022-08-21T09:34:03;100834.52;;;22.93;33.68
63663;BME280;49815;51.618;0.336;2022-08-21T09:36:34;100832.39;;;22.62;34.22
63663;BME280;49815;51.618;0.336;2022-08-21T09:38:53;100832.36;;;23.53;33.10
63663;BME280;49815;51.618;0.336;2022-08-21T09:41:25;100834.72;;;23.13;32.71
63663;BME280;49815;51.618;0.336;2022-08-21T09:43:51;100830.49;;;23.31;32.90
63663;BME280;49815;51.618;0.336;2022-08-21T09:46:09;100832.15;;;23.02;33.16
63663;BME280;49815;51.618;0.336;2022-08-21T09:48:40;100835.17;;;23.55;32.45
63663;BME280;49815;51.618;0.336;2022-08-21T09:51:06;100841.47;;;23.50;32.36
63663;BME280;49815;51.618;0.336;2022-08-21T09:53:24;100854.29;;;22.88;32.75
63663;BME280;49815;51.618;0.336;2022-08-21T09:55:51;100856.27;;;22.87;32.15
63663;BME280;49815;51.618;0.336;2022-08-21T09:58:12;100861.11;;;22.90;32.25
63663;BME280;49815;51.618;0.336;2022-08-21T10:00:37;100863.02;;;23.38;32.23
63663;BME280;49815;51.618;0.336;2022-08-21T10:03:13;100864.18;;;23.31;31.97
63663;BME280;49815;51.618;0.336;2022-08-21T10:05:27;100863.75;;;23.30;31.63
63663;BME280;49815;51.618;0.336;2022-08-21T10:07:53;100870.82;;;23.21;32.28
63663;BME280;49815;51.618;0.336;2022-08-21T10:10:20;100874.48;;;23.11;32.78
63663;BME280;49815;51.618;0.336;2022-08-21T10:12:49;100879.32;;;22.80;32.17
63663;BME280;49815;51.618;0.336;2022-08-21T10:15:22;100878.23;;;23.17;32.34
63663;BME280;49815;51.618;0.336;2022-08-21T10:17:37;100867.19;;;23.66;31.58
63663;BME280;49815;51.618;0.336;2022-08-21T10:20:03;100861.99;;;23.82;31.21
63663;BME280;49815;51.618;0.336;2022-08-21T10:22:32;100859.24;;;24.51;30.70
63663;BME280;49815;51.618;0.336;2022-08-21T10:24:55;100853.73;;;24.83;29.83
63663;BME280;49815;51.618;0.336;2022-08-21T10:27:22;100854.69;;;24.46;29.72
63663;BME280;49815;51.618;0.336;2022-08-21T10:29:46;100848.94;;;25.04;29.45
63663;BME280;49815;51.618;0.336;2022-08-21T10:32:06;100853.16;;;24.90;29.96
63663;BME280;49815;51.618;0.336;2022-08-21T10:34:38;100851.86;;;25.28;28.70
63663;BME280;49815;51.618;0.336;2022-08-21T10:37:06;100853.74;;;24.09;29.97
63663;BME280;49815;51.618;0.336;2022-08-21T10:39:23;100852.67;;;24.67;29.38
63663;BME280;49815;51.618;0.336;2022-08-21T10:44:15;100841.07;;;25.56;27.87
63663;BME280;49815;51.618;0.336;2022-08-21T10:46:43;100846.65;;;25.57;28.01
63663;BME280;49815;51.618;0.336;2022-08-21T10:49:08;100844.68;;;25.93;27.52
63663;BME280;49815;51.618;0.336;2022-08-21T10:51:38;100844.18;;;26.00;27.47
63663;BME280;49815;51.618;0.336;2022-08-21T10:53:59;100843.36;;;26.37;27.62
63663;BME280;49815;51.618;0.336;2022-08-21T10:56:18;100840.66;;;26.80;26.55
63663;BME280;49815;51.618;0.336;2022-08-21T10:58:43;100842.31;;;26.50;26.72
63663;BME280;49815;51.618;0.336;2022-08-21T11:01:09;100835.05;;;26.71;26.71
63663;BME280;49815;51.618;0.336;2022-08-21T11:03:33;100827.54;;;27.09;25.30
63663;BME280;49815;51.618;0.336;2022-08-21T11:05:57;100830.72;;;26.53;26.04
63663;BME280;49815;51.618;0.336;2022-08-21T11:08:23;100828.96;;;26.69;26.29
63663;BME280;49815;51.618;0.336;2022-08-21T11:10:47;100831.62;;;26.81;26.46
63663;BME280;49815;51.618;0.336;2022-08-21T11:13:16;100832.20;;;25.94;26.57
63663;BME280;49815;51.618;0.336;2022-08-21T11:15:41;100831.93;;;26.04;26.36
63663;BME280;49815;51.618;0.336;2022-08-21T11:18:09;100828.55;;;26.30;26.27
63663;BME280;49815;51.618;0.336;2022-08-21T11:20:31;100829.60;;;25.35;27.58
63663;BME280;49815;51.618;0.336;2022-08-21T11:22:53;100836.03;;;23.70;28.51
63663;BME280;49815;51.618;0.336;2022-08-21T11:25:21;100827.65;;;25.50;26.83
63663;BME280;49815;51.618;0.336;2022-08-21T11:27:44;100832.70;;;25.97;26.72
63663;BME280;49815;51.618;0.336;2022-08-21T11:30:07;100833.20;;;24.95;27.86
63663;BME280;49815;51.618;0.336;2022-08-21T11:32:47;100835.61;;;25.73;27.15
63663;BME280;49815;51.618;0.336;2022-08-21T11:35:02;100840.24;;;26.03;27.18
63663;BME280;49815;51.618;0.336;2022-08-21T11:37:29;100838.28;;;25.57;27.30
63663;BME280;49815;51.618;0.336;2022-08-21T11:39:56;100836.27;;;26.18;26.77
63663;BME280;49815;51.618;0.336;2022-08-21T11:42:15;100836.41;;;26.52;26.22
63663;BME280;49815;51.618;0.336;2022-08-21T11:44:44;100836.34;;;26.33;26.31
63663;BME280;49815;51.618;0.336;2022-08-21T11:47:08;100837.78;;;24.50;27.85
63663;BME280;49815;51.618;0.336;2022-08-21T11:49:39;100842.25;;;24.03;29.25
63663;BME280;49815;51.618;0.336;2022-08-21T11:51:55;100846.31;;;24.61;29.70
63663;BME280;49815;51.618;0.336;2022-08-21T11:54:23;100839.22;;;24.88;28.63
63663;BME280;49815;51.618;0.336;2022-08-21T11:56:45;100840.74;;;25.86;28.09
63663;BME280;49815;51.618;0.336;2022-08-21T11:59:10;100840.23;;;25.98;27.84
63663;BME280;49815;51.618;0.336;2022-08-21T12:01:34;100841.20;;;26.33;27.41
63663;BME280;49815;51.618;0.336;2022-08-21T12:04:00;100842.33;;;25.70;26.86
63663;BME280;49815;51.618;0.336;2022-08-21T12:06:28;100848.08;;;26.07;26.66
63663;BME280;49815;51.618;0.336;2022-08-21T12:08:57;100848.62;;;27.12;26.22
63663;BME280;49815;51.618;0.336;2022-08-21T12:11:22;100842.20;;;26.91;25.34
63663;BME280;49815;51.618;0.336;2022-08-21T12:16:07;100846.94;;;27.31;24.99
63663;BME280;49815;51.618;0.336;2022-08-21T12:18:30;100848.98;;;26.72;25.38
63663;BME280;49815;51.618;0.336;2022-08-21T12:21:01;100851.98;;;26.52;25.77
63663;BME280;49815;51.618;0.336;2022-08-21T12:25:46;100850.10;;;25.06;27.04
63663;BME280;49815;51.618;0.336;2022-08-21T12:28:09;100852.72;;;24.19;28.29
63663;BME280;49815;51.618;0.336;2022-08-21T12:30:36;100853.77;;;24.33;28.43
63663;BME280;49815;51.618;0.336;2022-08-21T12:33:00;100853.37;;;24.81;28.35
63663;BME280;49815;51.618;0.336;2022-08-21T12:35:26;100852.75;;;24.83;28.68
63663;BME280;49815;51.618;0.336;2022-08-21T12:37:56;100849.22;;;25.09;28.18
63663;BME280;49815;51.618;0.336;2022-08-21T12:40:20;100851.56;;;24.72;28.55
63663;BME280;49815;51.618;0.336;2022-08-21T12:42:42;100850.97;;;24.83;28.69
63663;BME280;49815;51.618;0.336;2022-08-21T12:45:14;100852.80;;;24.06;29.07
63663;BME280;49815;51.618;0.336;2022-08-21T12:47:32;100851.70;;;23.60;29.95